Time;durP1;ratioP1;P1;durP2;ratioP2;P2;SDS_P1;SDS_P2;PMS_P1;PMS_P2;Temp;Humidity;BMP_temperature;BMP_pressure;BME280_temperature;BME280_humidity;BME280_pressure;Samples;Min_cycle;Max_cycle;Signal;HPM_P1;HPM_P2
2023/06/11 00:01:17;;;;;;;10.73;8.27;;;;;;;;;;4974057;28;20057;-75
2023/06/11 00:03:46;;;;;;;11.35;8.55;;;;;;;;;;4973908;28;20057;-75
2023/06/11 00:06:17;;;;;;;13.07;8.52;;;;;;;;;;4973997;28;20050;-75
2023/06/11 00:08:45;;;;;;;15.90;9.27;;;;;;;;;;4989647;28;20502;-76
2023/06/11 00:11:11;;;;;;;13.38;9.00;;;;;;;;;;4992008;28;20148;-75
2023/06/11 00:13:36;;;;;;;13.25;9.07;;;;;;;;;;4992748;28;20129;-76
2023/06/11 00:16:02;;;;;;;13.25;9.00;;;;;;;;;;4993107;28;20022;-74
2023/06/11 00:18:29;;;;;;;10.68;8.25;;;;;;;;;;4973084;28;20453;-74
2023/06/11 00:20:56;;;;;;;15.35;8.50;;;;;;;;;;4973593;28;20035;-76
2023/06/11 00:23:23;;;;;;;15.07;8.23;;;;;;;;;;4973691;28;20456;-76
2023/06/11 00:25:48;;;;;;;10.40;7.78;;;;;;;;;;4973743;28;20081;-75
2023/06/11 00:28:14;;;;;;;9.77;7.68;;;;;;;;;;4973408;28;20481;-74
2023/06/11 00:30:40;;;;;;;12.65;8.27;;;;;;;;;;4971771;28;20041;-75
2023/06/11 00:33:06;;;;;;;12.05;8.40;;;;;;;;;;4973260;28;20046;-75
2023/06/11 00:35:31;;;;;;;10.70;7.30;;;;;;;;;;4988305;28;20113;-75
2023/06/11 00:37:57;;;;;;;11.02;7.13;;;;;;;;;;4979656;28;20030;-75
2023/06/11 00:40:23;;;;;;;11.63;7.78;;;;;;;;;;4992428;28;20431;-74
2023/06/11 00:42:50;;;;;;;15.20;8.27;;;;;;;;;;4992490;28;20022;-75
2023/06/11 00:45:16;;;;;;;13.30;7.25;;;;;;;;;;4991896;28;20030;-75
2023/06/11 00:47:42;;;;;;;11.68;7.13;;;;;;;;;;4985991;28;20038;-75
2023/06/11 00:50:10;;;;;;;9.07;7.30;;;;;;;;;;4973368;28;20450;-75
2023/06/11 00:52:36;;;;;;;8.93;6.95;;;;;;;;;;4973296;28;20505;-75
2023/06/11 00:55:02;;;;;;;9.00;6.97;;;;;;;;;;5004639;28;20031;-75
2023/06/11 00:57:28;;;;;;;12.25;7.50;;;;;;;;;;4973226;28;20030;-75
2023/06/11 00:59:55;;;;;;;12.15;7.15;;;;;;;;;;4972414;28;20389;-75
2023/06/11 01:02:36;;;;;;;10.63;7.18;;;;;;;;;;4973415;28;20493;-75
2023/06/11 01:05:05;;;;;;;8.63;5.78;;;;;;;;;;4971823;28;20062;-75
2023/06/11 01:07:36;;;;;;;9.85;6.20;;;;;;;;;;4971729;28;20023;-75
2023/06/11 01:10:03;;;;;;;10.25;6.10;;;;;;;;;;4971483;28;20055;-76
2023/06/11 01:12:33;;;;;;;8.68;6.70;;;;;;;;;;4971639;28;20041;-75
2023/06/11 01:15:00;;;;;;;9.50;7.50;;;;;;;;;;4971784;28;20049;-75
2023/06/11 01:17:35;;;;;;;9.07;6.28;;;;;;;;;;4971669;28;20031;-75
2023/06/11 01:20:10;;;;;;;8.88;6.57;;;;;;;;;;4971201;28;20512;-75
2023/06/11 01:23:09;;;;;;;8.98;5.85;;;;;;;;;;5004415;28;20034;-75
2023/06/11 01:25:46;;;;;;;8.80;6.43;;;;;;;;;;5004131;28;20129;-75
2023/06/11 01:28:19;;;;;;;8.77;6.45;;;;;;;;;;4971470;28;20039;-75
2023/06/11 01:30:51;;;;;;;10.15;6.60;;;;;;;;;;4971355;28;20031;-76
2023/06/11 01:33:20;;;;;;;9.43;6.30;;;;;;;;;;4972784;28;20081;-76
2023/06/11 01:35:52;;;;;;;;;;;;;;;;;;4973280;28;20031;-75
2023/06/11 01:38:21;;;;;;;59.00;47.85;;;;;;;;;;4955686;28;19949;-76
2023/06/11 01:40:55;;;;;;;52.97;46.47;;;;;;;;;;4971695;28;20023;-75
2023/06/11 01:43:23;;;;;;;34.90;31.10;;;;;;;;;;4973002;28;20042;-75
2023/06/11 01:45:49;;;;;;;22.75;18.63;;;;;;;;;;4971499;28;20031;-76
2023/06/11 01:48:15;;;;;;;21.73;15.65;;;;;;;;;;4971425;28;20173;-74
2023/06/11 01:50:41;;;;;;;35.85;31.98;;;;;;;;;;4974670;28;20034;-75
2023/06/11 01:53:07;;;;;;;40.35;31.13;;;;;;;;;;4975235;28;20035;-75
2023/06/11 01:55:32;;;;;;;13.60;11.73;;;;;;;;;;4975192;28;20045;-75
2023/06/11 01:57:59;;;;;;;13.38;10.57;;;;;;;;;;4976485;28;20037;-75
2023/06/11 02:00:25;;;;;;;12.23;8.32;;;;;;;;;;4974091;28;20114;-74
2023/06/11 02:02:51;;;;;;;9.98;7.40;;;;;;;;;;4971646;28;20592;-75
2023/06/11 02:05:17;;;;;;;11.38;7.40;;;;;;;;;;4964624;28;20034;-75
2023/06/11 02:07:43;;;;;;;12.32;7.38;;;;;;;;;;4972010;28;20053;-75
2023/06/11 02:10:10;;;;;;;12.50;7.95;;;;;;;;;;4973183;28;20022;-76
2023/06/11 02:12:35;;;;;;;13.10;8.00;;;;;;;;;;4974369;28;20035;-75
2023/06/11 02:15:03;;;;;;;12.85;8.30;;;;;;;;;;4988651;28;20030;-75
2023/06/11 02:17:29;;;;;;;10.10;7.43;;;;;;;;;;4970876;28;20035;-75
2023/06/11 02:19:54;;;;;;;15.35;8.82;;;;;;;;;;4970739;28;20034;-75
2023/06/11 02:22:20;;;;;;;11.27;8.00;;;;;;;;;;4971346;28;20038;-75
2023/06/11 02:24:46;;;;;;;12.27;8.18;;;;;;;;;;4953660;28;20086;-75
2023/06/11 02:27:12;;;;;;;11.90;7.70;;;;;;;;;;5003817;28;20471;-75
2023/06/11 02:29:38;;;;;;;10.95;7.72;;;;;;;;;;4959173;28;20031;-75
2023/06/11 02:32:06;;;;;;;9.23;7.68;;;;;;;;;;4977543;28;20038;-76
2023/06/11 02:34:31;;;;;;;13.00;7.47;;;;;;;;;;4972125;28;20611;-75
2023/06/11 02:36:57;;;;;;;13.52;7.85;;;;;;;;;;4973068;28;20073;-75
2023/06/11 02:39:24;;;;;;;12.55;7.93;;;;;;;;;;4971469;28;20034;-75
2023/06/11 02:41:50;;;;;;;12.45;6.40;;;;;;;;;;4971951;28;20039;-75
2023/06/11 02:44:15;;;;;;;12.82;7.32;;;;;;;;;;4973004;28;20026;-76
2023/06/11 02:46:41;;;;;;;8.93;6.72;;;;;;;;;;4971785;28;20069;-75
2023/06/11 02:49:07;;;;;;;11.98;8.27;;;;;;;;;;4972749;28;20034;-75
2023/06/11 02:51:34;;;;;;;13.23;8.38;;;;;;;;;;4971301;28;20125;-75
2023/06/11 02:54:00;;;;;;;17.67;9.05;;;;;;;;;;4971610;28;20085;-75
2023/06/11 02:56:26;;;;;;;16.33;10.05;;;;;;;;;;4971566;28;20035;-75
2023/06/11 02:58:52;;;;;;;13.50;9.02;;;;;;;;;;4972409;28;20244;-75
2023/06/11 03:01:18;;;;;;;15.70;9.68;;;;;;;;;;4970407;28;20035;-75
2023/06/11 03:03:43;;;;;;;18.17;8.40;;;;;;;;;;4955676;28;20445;-75
2023/06/11 03:06:10;;;;;;;15.43;9.52;;;;;;;;;;4972554;28;20166;-76
2023/06/11 03:08:36;;;;;;;15.75;8.98;;;;;;;;;;4972387;28;20027;-75
2023/06/11 03:11:02;;;;;;;14.77;8.80;;;;;;;;;;4971173;28;20039;-75
2023/06/11 03:13:33;;;;;;;16.23;9.35;;;;;;;;;;4973324;28;20029;-75
2023/06/11 03:15:58;;;;;;;13.18;9.25;;;;;;;;;;4971268;28;20046;-75
2023/06/11 03:18:25;;;;;;;11.02;8.52;;;;;;;;;;4977279;28;20053;-75
2023/06/11 03:20:51;;;;;;;14.38;9.20;;;;;;;;;;4992177;28;20531;-75
2023/06/11 03:23:17;;;;;;;18.67;8.93;;;;;;;;;;4994677;28;20025;-75
2023/06/11 03:25:44;;;;;;;15.80;9.38;;;;;;;;;;4974452;28;20093;-75
2023/06/11 03:28:10;;;;;;;15.27;9.00;;;;;;;;;;4973271;28;20109;-75
2023/06/11 03:30:36;;;;;;;14.95;9.73;;;;;;;;;;4957080;28;20493;-76
2023/06/11 03:33:03;;;;;;;14.82;7.50;;;;;;;;;;4973276;28;20031;-76
2023/06/11 03:35:29;;;;;;;15.48;9.15;;;;;;;;;;4989298;28;20096;-75
2023/06/11 03:37:57;;;;;;;13.75;9.55;;;;;;;;;;4975393;28;20149;-75
2023/06/11 03:40:25;;;;;;;12.95;9.57;;;;;;;;;;4975909;28;20034;-75
2023/06/11 03:42:54;;;;;;;18.33;9.68;;;;;;;;;;4975026;28;20073;-76
2023/06/11 03:45:19;;;;;;;18.52;10.27;;;;;;;;;;4975455;28;20035;-75
2023/06/11 03:47:45;;;;;;;23.15;9.32;;;;;;;;;;4978548;28;20479;-75
2023/06/11 03:50:12;;;;;;;15.00;8.57;;;;;;;;;;4975754;28;20045;-74
2023/06/11 03:52:38;;;;;;;16.65;8.63;;;;;;;;;;4976864;28;20113;-75
2023/06/11 03:55:04;;;;;;;15.02;8.05;;;;;;;;;;4978121;28;20093;-75
2023/06/11 03:57:30;;;;;;;14.40;7.95;;;;;;;;;;4978314;28;20369;-76
2023/06/11 03:59:57;;;;;;;16.33;9.07;;;;;;;;;;4973861;28;20090;-76
2023/06/11 04:02:22;;;;;;;16.95;7.82;;;;;;;;;;4974309;28;20558;-76
2023/06/11 04:04:48;;;;;;;18.50;8.20;;;;;;;;;;4985741;28;20055;-76
2023/06/11 04:07:14;;;;;;;13.93;8.68;;;;;;;;;;4992057;28;20381;-76
2023/06/11 04:09:40;;;;;;;25.17;9.15;;;;;;;;;;4991267;28;20034;-75
2023/06/11 04:12:06;;;;;;;21.73;9.05;;;;;;;;;;4991641;28;20026;-75
2023/06/11 04:14:33;;;;;;;17.75;8.35;;;;;;;;;;4991451;28;20500;-76
2023/06/11 04:16:58;;;;;;;17.90;8.70;;;;;;;;;;4991866;28;20041;-75
2023/06/11 04:19:25;;;;;;;20.05;8.10;;;;;;;;;;4991296;28;20038;-76
2023/06/11 04:21:51;;;;;;;20.60;8.52;;;;;;;;;;4991555;28;20439;-74
2023/06/11 04:24:17;;;;;;;22.77;9.48;;;;;;;;;;4991061;28;20096;-75
2023/06/11 04:26:44;;;;;;;16.33;9.52;;;;;;;;;;4975398;28;20084;-75
2023/06/11 04:29:11;;;;;;;19.48;8.38;;;;;;;;;;4990818;28;20121;-76
2023/06/11 04:31:37;;;;;;;11.93;7.95;;;;;;;;;;4979889;28;20107;-75
2023/06/11 04:34:06;;;;;;;22.58;8.93;;;;;;;;;;4972127;28;20034;-74
2023/06/11 04:36:34;;;;;;;21.38;9.73;;;;;;;;;;4972024;28;20476;-74
2023/06/11 04:39:01;;;;;;;15.90;8.45;;;;;;;;;;4971879;28;20065;-75
2023/06/11 04:41:29;;;;;;;15.10;8.35;;;;;;;;;;4972110;28;20551;-74
2023/06/11 04:43:56;;;;;;;16.52;8.30;;;;;;;;;;4972142;28;20027;-75
2023/06/11 04:46:22;;;;;;;23.73;9.13;;;;;;;;;;4956009;28;20098;-76
2023/06/11 04:48:50;;;;;;;26.30;8.82;;;;;;;;;;4971699;28;20496;-76
2023/06/11 04:51:17;;;;;;;13.00;8.25;;;;;;;;;;4971759;28;20101;-75
2023/06/11 04:53:45;;;;;;;18.00;9.00;;;;;;;;;;4971856;28;20085;-75
2023/06/11 04:56:12;;;;;;;17.48;8.90;;;;;;;;;;4971763;28;20039;-75
2023/06/11 04:58:39;;;;;;;24.17;9.38;;;;;;;;;;4972401;28;20030;-75
2023/06/11 05:01:07;;;;;;;13.88;8.50;;;;;;;;;;4991196;28;20041;-74
2023/06/11 05:03:37;;;;;;;18.10;10.68;;;;;;;;;;4992589;28;20026;-75
2023/06/11 05:06:05;;;;;;;12.23;9.23;;;;;;;;;;5022610;28;20041;-75
2023/06/11 05:08:33;;;;;;;16.98;10.60;;;;;;;;;;4989754;28;20030;-75
2023/06/11 05:11:00;;;;;;;16.00;10.25;;;;;;;;;;4990330;28;20133;-75
2023/06/11 05:13:29;;;;;;;12.45;10.30;;;;;;;;;;5023184;28;20041;-74
2023/06/11 05:16:02;;;;;;;15.27;9.93;;;;;;;;;;4990773;28;20137;-75
2023/06/11 05:18:30;;;;;;;15.68;9.68;;;;;;;;;;4991206;28;20043;-74
2023/06/11 05:20:59;;;;;;;16.67;9.52;;;;;;;;;;4990872;28;20019;-75
2023/06/11 05:23:31;;;;;;;18.90;10.77;;;;;;;;;;4991176;28;20034;-75
2023/06/11 05:26:08;;;;;;;21.50;11.93;;;;;;;;;;4995194;28;20513;-75
2023/06/11 05:28:37;;;;;;;20.20;12.13;;;;;;;;;;4995200;28;20404;-75
2023/06/11 05:31:05;;;;;;;16.10;10.05;;;;;;;;;;4995158;28;20034;-75
2023/06/11 05:33:34;;;;;;;15.30;9.45;;;;;;;;;;4996337;28;20027;-75
2023/06/11 05:36:01;;;;;;;12.68;8.68;;;;;;;;;;4995055;28;20034;-75
2023/06/11 05:38:28;;;;;;;12.98;8.20;;;;;;;;;;4996489;28;20133;-74
2023/06/11 05:40:56;;;;;;;17.77;9.93;;;;;;;;;;4983530;28;20031;-76
2023/06/11 05:43:23;;;;;;;13.77;9.70;;;;;;;;;;4970657;28;20511;-77
2023/06/11 05:45:49;;;;;;;16.55;8.23;;;;;;;;;;4990952;28;20496;-76
2023/06/11 05:48:17;;;;;;;15.32;8.82;;;;;;;;;;4975307;28;20022;-77
2023/06/11 05:50:43;;;;;;;20.15;9.25;;;;;;;;;;4975167;28;20039;-77
2023/06/11 05:53:09;;;;;;;15.43;9.05;;;;;;;;;;4975270;28;20113;-76
2023/06/11 05:55:37;;;;;;;14.20;8.77;;;;;;;;;;4975134;28;20031;-77
2023/06/11 05:58:05;;;;;;;11.77;7.90;;;;;;;;;;4975105;28;20357;-77
2023/06/11 06:00:31;;;;;;;15.73;8.70;;;;;;;;;;4959016;28;20048;-75
2023/06/11 06:02:58;;;;;;;18.92;8.90;;;;;;;;;;4971388;28;20036;-77
2023/06/11 06:05:28;;;;;;;20.40;9.40;;;;;;;;;;4976270;28;20038;-77
2023/06/11 06:07:54;;;;;;;17.52;9.02;;;;;;;;;;4974903;28;20030;-77
2023/06/11 06:10:22;;;;;;;13.98;8.43;;;;;;;;;;4975126;28;20038;-76
2023/06/11 06:12:49;;;;;;;10.45;7.95;;;;;;;;;;4974785;28;20503;-76
2023/06/11 06:15:15;;;;;;;12.38;7.30;;;;;;;;;;4976114;28;20031;-75
2023/06/11 06:17:43;;;;;;;14.88;8.10;;;;;;;;;;4974726;28;20066;-76
2023/06/11 06:20:12;;;;;;;12.25;7.07;;;;;;;;;;4977665;28;20027;-74
2023/06/11 06:22:40;;;;;;;11.95;7.07;;;;;;;;;;4978649;28;20031;-77
2023/06/11 06:25:07;;;;;;;13.70;6.65;;;;;;;;;;4974621;28;20062;-76
2023/06/11 06:27:34;;;;;;;11.18;6.93;;;;;;;;;;4974624;28;20118;-77
2023/06/11 06:30:01;;;;;;;14.70;6.80;;;;;;;;;;4974578;28;20031;-75
2023/06/11 06:32:29;;;;;;;11.23;7.20;;;;;;;;;;4972514;28;20101;-76
2023/06/11 06:34:55;;;;;;;12.38;6.82;;;;;;;;;;4974647;28;20034;-78
2023/06/11 06:37:24;;;;;;;13.73;6.85;;;;;;;;;;4974433;28;20038;-77
2023/06/11 06:39:49;;;;;;;12.82;6.90;;;;;;;;;;4974489;28;20397;-77
2023/06/11 06:42:15;;;;;;;7.85;6.70;;;;;;;;;;4974387;28;20030;-75
2023/06/11 06:44:47;;;;;;;8.93;6.93;;;;;;;;;;4974473;28;20133;-76
2023/06/11 06:47:14;;;;;;;7.50;5.90;;;;;;;;;;4974316;28;20039;-75
2023/06/11 06:49:41;;;;;;;8.07;5.25;;;;;;;;;;4973945;28;20042;-77
2023/06/11 06:52:11;;;;;;;10.40;6.22;;;;;;;;;;4974015;28;20038;-76
2023/06/11 06:54:38;;;;;;;12.05;6.40;;;;;;;;;;4975278;28;20433;-77
2023/06/11 06:57:10;;;;;;;11.90;6.97;;;;;;;;;;4973971;28;20555;-75
2023/06/11 06:59:37;;;;;;;13.80;7.73;;;;;;;;;;4973911;28;20041;-77
2023/06/11 07:02:04;;;;;;;10.77;7.70;;;;;;;;;;4973939;28;20304;-77
2023/06/11 07:04:30;;;;;;;17.80;7.43;;;;;;;;;;4973932;28;20050;-77
2023/06/11 07:06:58;;;;;;;16.58;7.75;;;;;;;;;;4973672;28;20526;-78
2023/06/11 07:09:24;;;;;;;18.85;8.10;;;;;;;;;;4973787;28;20066;-77
2023/06/11 07:11:52;;;;;;;11.10;7.60;;;;;;;;;;4975012;28;20050;-76
2023/06/11 07:14:18;;;;;;;16.05;7.90;;;;;;;;;;4974962;28;20485;-76
2023/06/11 07:16:45;;;;;;;9.88;6.90;;;;;;;;;;4973753;28;20030;-76
2023/06/11 07:19:12;;;;;;;8.73;7.43;;;;;;;;;;4973485;28;20035;-77
2023/06/11 07:21:38;;;;;;;12.48;7.70;;;;;;;;;;4973594;28;20043;-77
2023/06/11 07:24:05;;;;;;;9.30;7.05;;;;;;;;;;4974841;28;20030;-77
2023/06/11 07:26:31;;;;;;;12.30;7.53;;;;;;;;;;4941838;28;20038;-76
2023/06/11 07:28:58;;;;;;;10.02;7.57;;;;;;;;;;4973234;28;20088;-76
2023/06/11 07:31:25;;;;;;;14.02;7.90;;;;;;;;;;4973365;28;20045;-76
2023/06/11 07:33:51;;;;;;;10.68;5.53;;;;;;;;;;4973197;28;20089;-76
2023/06/11 07:36:18;;;;;;;9.45;5.85;;;;;;;;;;4973317;28;20118;-77
2023/06/11 07:38:45;;;;;;;10.80;5.90;;;;;;;;;;4973199;28;20039;-75
2023/06/11 07:41:13;;;;;;;8.27;5.78;;;;;;;;;;4973515;28;20030;-77
2023/06/11 07:43:39;;;;;;;9.02;5.28;;;;;;;;;;4956957;28;20026;-77
2023/06/11 07:46:09;;;;;;;7.45;5.30;;;;;;;;;;4973608;28;20045;-77
2023/06/11 07:48:41;;;;;;;7.45;4.35;;;;;;;;;;4972467;28;20101;-79
2023/06/11 07:51:08;;;;;;;12.77;5.88;;;;;;;;;;4973151;28;20104;-79
2023/06/11 07:53:33;;;;;;;10.40;6.07;;;;;;;;;;4972896;28;20440;-75
2023/06/11 07:55:59;;;;;;;7.55;5.47;;;;;;;;;;4972769;28;20039;-76
2023/06/11 07:58:25;;;;;;;6.63;4.82;;;;;;;;;;4972758;28;20133;-77
2023/06/11 08:00:52;;;;;;;10.90;4.85;;;;;;;;;;4972557;28;20047;-79
2023/06/11 08:03:18;;;;;;;5.05;4.35;;;;;;;;;;4972969;28;20102;-76
2023/06/11 08:05:45;;;;;;;6.53;3.95;;;;;;;;;;4974163;28;20448;-78
2023/06/11 08:08:10;;;;;;;8.05;4.28;;;;;;;;;;4956695;28;20101;-76
2023/06/11 08:10:37;;;;;;;7.13;4.70;;;;;;;;;;4973882;28;20481;-77
2023/06/11 08:13:03;;;;;;;5.65;4.60;;;;;;;;;;4973511;28;20045;-76
2023/06/11 08:15:30;;;;;;;8.90;4.60;;;;;;;;;;4973551;28;20038;-77
2023/06/11 08:17:56;;;;;;;5.65;4.80;;;;;;;;;;4973641;28;20023;-77
2023/06/11 08:20:22;;;;;;;8.10;5.13;;;;;;;;;;4973454;28;20098;-77
2023/06/11 08:22:48;;;;;;;8.63;4.45;;;;;;;;;;4973586;28;20049;-77
2023/06/11 08:25:14;;;;;;;5.75;4.50;;;;;;;;;;4973483;28;20041;-77
2023/06/11 08:27:40;;;;;;;7.10;4.63;;;;;;;;;;4973660;28;20029;-76
2023/06/11 08:30:06;;;;;;;9.40;5.38;;;;;;;;;;4973126;28;20500;-77
2023/06/11 08:32:33;;;;;;;9.82;5.38;;;;;;;;;;4973168;28;20532;-76
2023/06/11 08:34:59;;;;;;;7.53;5.03;;;;;;;;;;4973565;28;20038;-77
2023/06/11 08:37:25;;;;;;;5.60;5.00;;;;;;;;;;4973314;28;20034;-76
2023/06/11 08:39:51;;;;;;;8.10;4.90;;;;;;;;;;4972103;28;20043;-76
2023/06/11 08:42:17;;;;;;;13.60;9.63;;;;;;;;;;4973363;28;20022;-76
2023/06/11 08:44:43;;;;;;;13.23;4.65;;;;;;;;;;4973278;28;20034;-77
2023/06/11 08:47:11;;;;;;;6.35;5.20;;;;;;;;;;4972314;28;20560;-77
2023/06/11 08:49:39;;;;;;;7.80;4.97;;;;;;;;;;4972137;28;20126;-77
2023/06/11 08:52:05;;;;;;;5.88;4.75;;;;;;;;;;4973533;28;20444;-75
2023/06/11 08:54:31;;;;;;;6.75;5.03;;;;;;;;;;4973491;28;20034;-78
2023/06/11 08:57:07;;;;;;;6.07;4.90;;;;;;;;;;4973337;28;20031;-80
2023/06/11 08:59:33;;;;;;;5.60;4.20;;;;;;;;;;4972371;28;20055;-77
2023/06/11 09:02:00;;;;;;;5.50;3.95;;;;;;;;;;4973026;28;20511;-77
2023/06/11 09:04:26;;;;;;;6.20;4.85;;;;;;;;;;4973084;28;20142;-75
2023/06/11 09:06:56;;;;;;;6.43;4.65;;;;;;;;;;4973433;28;20125;-77
2023/06/11 09:09:22;;;;;;;7.97;4.05;;;;;;;;;;4973159;28;20397;-76
2023/06/11 09:11:47;;;;;;;5.60;4.20;;;;;;;;;;4973000;28;20037;-77
2023/06/11 09:14:14;;;;;;;7.22;4.05;;;;;;;;;;4973040;28;20035;-77
2023/06/11 09:16:42;;;;;;;4.30;3.83;;;;;;;;;;4971951;28;20033;-76
2023/06/11 09:19:20;;;;;;;5.40;4.47;;;;;;;;;;4972869;28;20534;-75
2023/06/11 09:21:56;;;;;;;5.45;3.88;;;;;;;;;;4971784;28;20109;-76
2023/06/11 09:24:23;;;;;;;5.78;4.07;;;;;;;;;;4972537;28;20073;-76
2023/06/11 09:26:54;;;;;;;5.40;4.25;;;;;;;;;;4972508;28;20022;-77
2023/06/11 09:29:21;;;;;;;5.00;3.80;;;;;;;;;;4973139;28;20464;-78
2023/06/11 09:31:47;;;;;;;7.47;4.22;;;;;;;;;;4974035;28;20473;-77
2023/06/11 09:34:17;;;;;;;6.10;4.45;;;;;;;;;;4972816;28;20037;-78
2023/06/11 09:36:48;;;;;;;6.80;4.03;;;;;;;;;;4973779;28;20249;-77
2023/06/11 09:39:16;;;;;;;5.78;4.00;;;;;;;;;;4953449;28;20047;-77
2023/06/11 09:41:51;;;;;;;5.75;4.43;;;;;;;;;;4953614;28;20375;-76
2023/06/11 09:44:18;;;;;;;9.13;3.97;;;;;;;;;;4953473;28;20078;-78
2023/06/11 09:46:46;;;;;;;6.65;3.92;;;;;;;;;;4953698;28;20027;-77
2023/06/11 09:49:13;;;;;;;7.20;4.35;;;;;;;;;;4953223;28;20507;-77
2023/06/11 09:51:40;;;;;;;4.70;3.83;;;;;;;;;;4953425;28;20030;-78
2023/06/11 09:54:08;;;;;;;7.88;4.63;;;;;;;;;;4954232;28;20047;-78
2023/06/11 09:56:38;;;;;;;5.22;4.32;;;;;;;;;;4953513;28;20047;-77
2023/06/11 09:59:05;;;;;;;6.38;4.38;;;;;;;;;;4953443;28;20038;-77
2023/06/11 10:01:33;;;;;;;5.05;4.43;;;;;;;;;;4953282;28;20027;-76
2023/06/11 10:04:00;;;;;;;5.70;4.43;;;;;;;;;;4953015;28;20097;-77
2023/06/11 10:06:30;;;;;;;6.88;4.30;;;;;;;;;;4952061;28;20023;-77
2023/06/11 10:09:00;;;;;;;5.82;4.13;;;;;;;;;;4984102;28;20529;-77
2023/06/11 10:11:38;;;;;;;6.90;4.60;;;;;;;;;;4957364;28;20034;-78
2023/06/11 10:14:11;;;;;;;5.90;4.22;;;;;;;;;;4958307;28;20409;-77
2023/06/11 10:16:37;;;;;;;6.53;4.07;;;;;;;;;;4988199;28;20042;-79
2023/06/11 10:19:10;;;;;;;4.53;3.70;;;;;;;;;;4988076;28;20038;-78
2023/06/11 10:21:45;;;;;;;4.60;3.90;;;;;;;;;;4956895;28;20122;-78
2023/06/11 10:24:22;;;;;;;4.80;3.70;;;;;;;;;;4988018;28;20470;-77
2023/06/11 10:27:11;;;;;;;4.53;3.78;;;;;;;;;;4988069;28;20094;-77
2023/06/11 10:29:45;;;;;;;6.78;3.65;;;;;;;;;;4956657;28;20042;-76
2023/06/11 10:32:19;;;;;;;5.22;4.10;;;;;;;;;;4955198;28;20039;-76
2023/06/11 10:34:48;;;;;;;3.60;3.20;;;;;;;;;;4956690;28;20043;-77
2023/06/11 10:37:15;;;;;;;4.93;3.60;;;;;;;;;;4955186;28;20023;-78
2023/06/11 10:39:50;;;;;;;6.55;3.85;;;;;;;;;;4958270;28;20039;-78
2023/06/11 10:42:27;;;;;;;6.25;3.85;;;;;;;;;;4955469;28;20394;-78
2023/06/11 10:44:58;;;;;;;5.18;3.55;;;;;;;;;;4956416;28;20493;-75
2023/06/11 10:47:26;;;;;;;5.05;3.88;;;;;;;;;;4956414;28;20042;-77
2023/06/11 10:49:53;;;;;;;6.05;3.78;;;;;;;;;;4956030;28;20493;-76
2023/06/11 10:52:19;;;;;;;5.18;4.00;;;;;;;;;;4956296;28;20036;-77
2023/06/11 10:54:49;;;;;;;5.78;4.78;;;;;;;;;;4956248;28;20495;-77
2023/06/11 10:57:16;;;;;;;5.70;3.97;;;;;;;;;;4987753;28;20133;-76
2023/06/11 10:59:42;;;;;;;10.48;6.68;;;;;;;;;;4956505;28;20031;-78
2023/06/11 11:02:15;;;;;;;4.70;4.00;;;;;;;;;;4956215;28;20158;-77
2023/06/11 11:04:53;;;;;;;8.80;4.22;;;;;;;;;;4956319;28;20035;-77
2023/06/11 11:07:33;;;;;;;7.03;4.10;;;;;;;;;;4985849;28;20451;-76
2023/06/11 11:10:01;;;;;;;8.05;5.30;;;;;;;;;;4955947;28;20035;-77
2023/06/11 11:12:38;;;;;;;4.43;3.72;;;;;;;;;;4954573;29;20046;-78
2023/06/11 11:15:06;;;;;;;5.70;4.00;;;;;;;;;;4955871;28;20406;-77
2023/06/11 11:17:33;;;;;;;5.13;4.00;;;;;;;;;;4955768;28;20041;-76
2023/06/11 11:19:58;;;;;;;5.18;4.30;;;;;;;;;;4971133;28;20480;-77
2023/06/11 11:22:29;;;;;;;7.43;4.50;;;;;;;;;;4954602;28;20074;-77
2023/06/11 11:25:03;;;;;;;5.80;3.90;;;;;;;;;;4954360;28;20137;-77
2023/06/11 11:27:29;;;;;;;7.25;3.83;;;;;;;;;;4986161;28;20121;-78
2023/06/11 11:29:57;;;;;;;7.32;3.55;;;;;;;;;;4955447;28;20497;-77
2023/06/11 11:32:28;;;;;;;5.07;3.83;;;;;;;;;;4955548;28;20074;-77
2023/06/11 11:34:56;;;;;;;7.75;5.28;;;;;;;;;;4955746;28;20044;-77
2023/06/11 11:37:22;;;;;;;9.27;5.63;;;;;;;;;;4955431;28;20033;-78
2023/06/11 11:39:52;;;;;;;8.35;5.85;;;;;;;;;;4956478;28;20047;-78
2023/06/11 11:42:19;;;;;;;6.50;5.85;;;;;;;;;;4962452;28;20042;-77
2023/06/11 11:44:44;;;;;;;7.90;5.78;;;;;;;;;;4974321;28;20023;-77
2023/06/11 11:47:12;;;;;;;7.88;5.10;;;;;;;;;;4974848;28;20061;-79
2023/06/11 11:49:38;;;;;;;6.57;4.93;;;;;;;;;;4989416;28;20030;-75
2023/06/11 11:52:07;;;;;;;6.70;5.40;;;;;;;;;;4974516;28;20047;-74
2023/06/11 11:54:33;;;;;;;7.32;5.75;;;;;;;;;;4973085;28;20130;-77
2023/06/11 11:57:08;;;;;;;7.35;3.92;;;;;;;;;;4973204;28;20106;-75
2023/06/11 11:59:38;;;;;;;10.07;5.93;;;;;;;;;;4957116;28;20085;-76
2023/06/11 12:02:04;;;;;;;18.05;13.52;;;;;;;;;;4973790;28;20038;-78
2023/06/11 12:04:37;;;;;;;8.90;6.65;;;;;;;;;;5005911;28;20042;-77
2023/06/11 12:07:23;;;;;;;9.32;7.03;;;;;;;;;;4975117;28;20065;-77
2023/06/11 12:09:49;;;;;;;8.57;4.55;;;;;;;;;;4973420;28;20504;-78
2023/06/11 12:12:14;;;;;;;11.85;7.63;;;;;;;;;;4973634;28;20089;-78
2023/06/11 12:14:40;;;;;;;17.85;10.77;;;;;;;;;;4973207;28;20401;-78
2023/06/11 12:17:10;;;;;;;7.13;5.65;;;;;;;;;;4973848;28;20033;-76
2023/06/11 12:19:37;;;;;;;10.32;6.53;;;;;;;;;;4973113;28;20037;-78
2023/06/11 12:22:06;;;;;;;6.25;2.90;;;;;;;;;;4974439;28;20385;-77
2023/06/11 12:24:36;;;;;;;3.72;3.03;;;;;;;;;;5005813;28;20038;-78
2023/06/11 12:27:02;;;;;;;6.93;3.00;;;;;;;;;;4974349;28;20477;-77
2023/06/11 12:29:28;;;;;;;5.85;3.70;;;;;;;;;;4972936;28;20038;-78
2023/06/11 12:31:53;;;;;;;12.98;4.55;;;;;;;;;;4974405;28;20027;-78
2023/06/11 12:34:20;;;;;;;6.82;4.30;;;;;;;;;;4972782;28;20486;-76
2023/06/11 12:36:46;;;;;;;10.68;4.63;;;;;;;;;;4973921;28;20033;-77
2023/06/11 12:39:13;;;;;;;10.13;4.50;;;;;;;;;;4973701;28;20134;-76
2023/06/11 12:41:39;;;;;;;8.25;5.10;;;;;;;;;;4973742;28;20022;-76
2023/06/11 12:44:05;;;;;;;9.57;4.60;;;;;;;;;;4972450;28;20488;-77
2023/06/11 12:46:30;;;;;;;9.98;5.60;;;;;;;;;;4973634;28;20023;-76
2023/06/11 12:48:57;;;;;;;10.35;6.15;;;;;;;;;;4973838;28;20121;-77
2023/06/11 12:51:22;;;;;;;8.18;5.43;;;;;;;;;;4972598;28;20481;-77
2023/06/11 12:53:52;;;;;;;12.18;6.28;;;;;;;;;;4997950;28;20089;-76
2023/06/11 12:56:22;;;;;;;8.45;5.68;;;;;;;;;;4972174;28;20508;-77
2023/06/11 12:58:56;;;;;;;11.88;6.30;;;;;;;;;;4972206;28;20441;-76
2023/06/11 13:01:22;;;;;;;8.02;5.65;;;;;;;;;;4972017;28;20033;-76
2023/06/11 13:03:47;;;;;;;8.98;5.93;;;;;;;;;;4972266;28;20370;-76
2023/06/11 13:06:14;;;;;;;9.32;6.38;;;;;;;;;;4973278;28;20026;-76
2023/06/11 13:08:39;;;;;;;11.07;6.63;;;;;;;;;;4973503;28;20041;-77
2023/06/11 13:11:05;;;;;;;10.60;6.43;;;;;;;;;;4973500;28;20452;-76
2023/06/11 13:13:31;;;;;;;9.05;6.18;;;;;;;;;;4973011;28;20043;-75
2023/06/11 13:15:56;;;;;;;10.30;6.22;;;;;;;;;;4972075;28;20027;-77
2023/06/11 13:18:22;;;;;;;8.88;6.22;;;;;;;;;;4973190;28;20046;-76
2023/06/11 13:20:48;;;;;;;9.07;6.60;;;;;;;;;;4973085;28;20502;-77
2023/06/11 13:23:20;;;;;;;9.30;6.60;;;;;;;;;;4973096;28;20050;-76
2023/06/11 13:25:46;;;;;;;8.23;4.97;;;;;;;;;;4972917;28;20030;-76
2023/06/11 13:28:12;;;;;;;7.80;4.25;;;;;;;;;;4964102;28;20023;-77
2023/06/11 13:30:38;;;;;;;5.15;3.85;;;;;;;;;;4973017;28;20058;-77
2023/06/11 13:33:03;;;;;;;7.03;4.05;;;;;;;;;;4972816;28;20469;-76
2023/06/11 13:35:29;;;;;;;5.78;4.07;;;;;;;;;;4972989;28;20113;-76
2023/06/11 13:37:57;;;;;;;7.45;3.95;;;;;;;;;;4972796;28;20138;-76
2023/06/11 13:40:23;;;;;;;5.22;3.47;;;;;;;;;;4972530;28;20052;-77
2023/06/11 13:42:50;;;;;;;5.57;3.78;;;;;;;;;;4972967;28;20022;-77
2023/06/11 13:45:16;;;;;;;7.38;4.55;;;;;;;;;;4974013;28;20074;-75
2023/06/11 13:47:41;;;;;;;5.75;3.25;;;;;;;;;;4976982;28;20018;-77
2023/06/11 13:50:09;;;;;;;6.10;4.05;;;;;;;;;;4976775;28;20077;-76
2023/06/11 13:52:35;;;;;;;3.50;2.50;;;;;;;;;;4976595;28;20011;-77
2023/06/11 13:55:02;;;;;;;7.43;2.70;;;;;;;;;;4977537;28;20389;-76
2023/06/11 13:57:27;;;;;;;3.78;2.42;;;;;;;;;;4977301;28;20022;-77
2023/06/11 13:59:54;;;;;;;4.75;2.50;;;;;;;;;;4978266;28;20053;-76
2023/06/11 14:02:20;;;;;;;4.95;2.05;;;;;;;;;;4978264;28;20396;-76
2023/06/11 14:04:46;;;;;;;4.82;2.42;;;;;;;;;;4978138;28;20066;-77
2023/06/11 14:07:12;;;;;;;4.72;2.38;;;;;;;;;;4975846;28;20272;-77
2023/06/11 14:09:38;;;;;;;2.45;1.98;;;;;;;;;;4976862;28;20038;-77
2023/06/11 14:12:05;;;;;;;4.85;2.58;;;;;;;;;;4977573;28;20019;-77
2023/06/11 14:14:31;;;;;;;3.85;2.70;;;;;;;;;;4977968;28;20041;-76
2023/06/11 14:17:04;;;;;;;3.55;2.40;;;;;;;;;;4978013;28;20126;-77
2023/06/11 14:19:30;;;;;;;4.78;2.83;;;;;;;;;;4976310;28;20026;-77
2023/06/11 14:21:57;;;;;;;4.25;2.75;;;;;;;;;;4976299;28;20046;-76
2023/06/11 14:24:24;;;;;;;6.13;3.80;;;;;;;;;;4974422;28;20027;-76
2023/06/11 14:26:51;;;;;;;7.38;3.47;;;;;;;;;;4972154;28;20023;-76
2023/06/11 14:29:16;;;;;;;9.13;3.45;;;;;;;;;;4973123;28;20049;-77
2023/06/11 14:31:43;;;;;;;9.00;4.75;;;;;;;;;;4973403;28;20027;-77
2023/06/11 14:34:09;;;;;;;6.45;3.53;;;;;;;;;;4973399;28;20070;-76
2023/06/11 14:36:35;;;;;;;7.68;4.03;;;;;;;;;;4972354;28;20098;-75
2023/06/11 14:39:01;;;;;;;6.45;3.45;;;;;;;;;;4966693;28;20039;-75